Coutts, Canada
Current Conditions -  °F | °C
As of 1:56 PM on Sunday 23 Nov 2014 (Local Time) from KCTB Reporting Station
Clear Clear  
Wind Chill: 29°   Ceiling: Unl
Heat Index: 38°   Visibility: 10mi
Dew Point: 20°   Wind: 16mph
Humidity: 48%   Direction: 250°WSW
Pressure: 29.81"   Gusts: NA
Location:  49°N, 111.95°W
Report Text: KCTB 232056Z AUTO 25014KT 10SM CLR 03/M07 A2981 RMK AO2 PK WND 27034/2001 SLP122 T00331067 56013
Loading
Personal Weather Stations






























Interactive Weather Map New forecast layout! Learn more

10-Day Weather Forecast

Advertisements
Track Severe Weather on mobile